createdAt,value
2023-02-12T00:02:10.075Z,21.60
2023-02-12T00:04:40.510Z,23.50
2023-02-12T00:07:12.765Z,22.67
2023-02-12T00:09:57.364Z,23.95
2023-02-12T00:12:29.870Z,22.25
2023-02-12T00:14:58.741Z,23.27
2023-02-12T00:17:29.314Z,21.23
2023-02-12T00:20:03.992Z,22.70
2023-02-12T00:22:35.124Z,22.98
2023-02-12T00:25:03.618Z,22.23
2023-02-12T00:27:36.636Z,21.92
2023-02-12T00:32:38.905Z,21.23
2023-02-12T00:35:07.847Z,22.67
2023-02-12T00:37:36.289Z,21.20
2023-02-12T00:40:05.458Z,18.75
2023-02-12T00:42:35.665Z,21.38
2023-02-12T00:45:05.362Z,19.38
2023-02-12T00:47:36.628Z,20.70
2023-02-12T00:50:06.522Z,20.08
2023-02-12T00:52:36.277Z,20.63
2023-02-12T00:55:07.971Z,20.55
2023-02-12T00:57:36.560Z,20.02
2023-02-12T01:00:05.904Z,21.20
2023-02-12T01:02:36.772Z,19.55
2023-02-12T01:05:05.667Z,20.08
2023-02-12T01:07:36.218Z,19.05
2023-02-12T01:10:04.502Z,19.58
2023-02-12T01:12:33.548Z,18.67
2023-02-12T01:15:04.795Z,20.05
2023-02-12T01:17:33.472Z,18.85
2023-02-12T01:20:07.189Z,19.50
2023-02-12T01:22:38.857Z,20.27
2023-02-12T01:25:08.319Z,20.15
2023-02-12T01:27:38.962Z,19.95
2023-02-12T01:30:12.958Z,20.80
2023-02-12T01:32:41.766Z,20.15
2023-02-12T01:35:14.153Z,20.52
2023-02-12T01:37:44.797Z,20.53
2023-02-12T01:40:20.062Z,20.73
2023-02-12T01:42:49.209Z,18.85
2023-02-12T01:45:48.889Z,19.42
2023-02-12T01:48:19.900Z,19.70
2023-02-12T01:50:56.462Z,19.55
2023-02-12T01:53:37.007Z,19.23
2023-02-12T01:56:05.626Z,19.52
2023-02-12T01:58:39.183Z,19.10
2023-02-12T02:01:11.421Z,20.67
2023-02-12T02:03:44.004Z,18.05
2023-02-12T02:06:21.433Z,20.38
2023-02-12T02:08:51.057Z,18.38
2023-02-12T02:11:43.382Z,19.33
2023-02-12T02:14:31.156Z,17.73
2023-02-12T02:17:10.058Z,18.10
2023-02-12T02:20:13.225Z,17.50
2023-02-12T02:23:06.043Z,17.52
2023-02-12T02:26:06.015Z,18.25
2023-02-12T02:28:59.351Z,18.10
2023-02-12T02:31:37.774Z,18.73
2023-02-12T02:34:13.457Z,19.02
2023-02-12T02:36:59.827Z,18.25
2023-02-12T02:39:37.739Z,19.23
2023-02-12T02:42:12.285Z,19.80
2023-02-12T02:44:46.442Z,20.55
2023-02-12T02:47:20.632Z,19.27
2023-02-12T02:49:53.203Z,19.80
2023-02-12T02:52:38.909Z,20.85
2023-02-12T02:55:16.316Z,19.13
2023-02-12T02:57:50.160Z,20.23
2023-02-12T03:00:29.062Z,20.52
2023-02-12T03:03:06.480Z,21.27
2023-02-12T03:05:39.967Z,21.60
2023-02-12T03:08:14.985Z,19.67
2023-02-12T03:10:48.855Z,20.23
2023-02-12T03:13:36.770Z,19.33
2023-02-12T03:16:13.436Z,20.17
2023-02-12T03:18:52.678Z,18.77
2023-02-12T03:21:31.535Z,19.77
2023-02-12T03:24:07.510Z,21.52
2023-02-12T03:26:42.876Z,21.02
2023-02-12T03:29:16.125Z,20.65
2023-02-12T03:32:08.391Z,21.67
2023-02-12T03:34:50.221Z,20.77
2023-02-12T03:37:23.969Z,21.77
2023-02-12T03:40:03.018Z,20.73
2023-02-12T03:42:40.115Z,21.02
2023-02-12T03:45:16.291Z,20.88
2023-02-12T03:47:50.814Z,21.42
2023-02-12T03:50:31.006Z,20.50
2023-02-12T03:53:02.386Z,23.00
2023-02-12T03:55:33.949Z,21.13
2023-02-12T03:58:04.516Z,20.23
2023-02-12T04:00:33.031Z,22.02
2023-02-12T04:03:04.601Z,19.85
2023-02-12T04:05:35.444Z,20.48
2023-02-12T04:08:05.333Z,19.25
2023-02-12T04:10:40.037Z,21.90
2023-02-12T04:13:20.230Z,19.70
2023-02-12T04:15:58.831Z,20.38
2023-02-12T04:18:37.466Z,21.40
2023-02-12T04:21:15.278Z,20.27
2023-02-12T04:23:53.915Z,19.88
2023-02-12T04:26:37.297Z,20.23
2023-02-12T04:29:26.756Z,19.77
2023-02-12T04:31:59.391Z,20.23
2023-02-12T04:34:37.076Z,19.77
2023-02-12T04:37:14.179Z,21.25
2023-02-12T04:39:46.398Z,21.50
2023-02-12T04:42:18.125Z,21.80
2023-02-12T04:44:47.363Z,21.75
2023-02-12T04:47:18.396Z,20.95
2023-02-12T04:49:48.185Z,21.95
2023-02-12T04:52:22.817Z,22.15
2023-02-12T04:54:54.721Z,22.33
2023-02-12T04:57:24.200Z,22.65
2023-02-12T04:59:53.211Z,22.15
2023-02-12T05:02:25.210Z,23.45
2023-02-12T05:04:54.158Z,23.08
2023-02-12T05:07:27.239Z,22.15
2023-02-12T05:09:58.299Z,21.88
2023-02-12T05:12:35.195Z,21.73
2023-02-12T05:15:04.271Z,22.25
2023-02-12T05:17:32.992Z,21.83
2023-02-12T05:20:01.573Z,21.55
2023-02-12T05:22:33.026Z,20.83
2023-02-12T05:25:02.274Z,20.50
2023-02-12T05:27:34.191Z,21.80
2023-02-12T05:30:03.226Z,19.88
2023-02-12T05:32:31.805Z,20.05
2023-02-12T05:35:01.683Z,20.08
2023-02-12T05:37:44.458Z,19.65
2023-02-12T05:40:13.562Z,18.83
2023-02-12T05:42:42.315Z,17.65
2023-02-12T05:45:13.650Z,18.10
2023-02-12T05:47:42.673Z,18.60
2023-02-12T05:50:18.818Z,18.80
2023-02-12T05:52:57.080Z,18.98
2023-02-12T05:55:27.498Z,18.42
2023-02-12T05:57:55.985Z,17.38
2023-02-12T06:00:27.547Z,17.50
2023-02-12T06:02:59.420Z,18.80
2023-02-12T06:05:39.033Z,19.23
2023-02-12T06:08:12.872Z,19.42
2023-02-12T06:10:44.314Z,21.08
2023-02-12T06:13:14.173Z,21.00
2023-02-12T06:15:48.307Z,20.27
2023-02-12T06:18:19.876Z,21.73
2023-02-12T06:20:50.772Z,20.08
2023-02-12T06:23:28.898Z,19.70
2023-02-12T06:25:58.670Z,19.17
2023-02-12T06:28:30.943Z,20.52
2023-02-12T06:31:01.030Z,18.87
2023-02-12T06:33:33.114Z,22.02
2023-02-12T06:36:05.128Z,20.75
2023-02-12T06:38:36.339Z,21.10
2023-02-12T06:41:05.924Z,20.70
2023-02-12T06:43:35.593Z,20.20
2023-02-12T06:46:04.540Z,20.80
2023-02-12T06:48:35.386Z,19.75
2023-02-12T06:51:13.911Z,20.92
2023-02-12T06:53:43.990Z,21.27
2023-02-12T06:56:16.631Z,22.52
2023-02-12T06:58:48.823Z,22.50
2023-02-12T07:01:19.288Z,21.73
2023-02-12T07:03:52.131Z,22.35
2023-02-12T07:06:22.702Z,23.42
2023-02-12T07:08:52.571Z,23.00
2023-02-12T07:11:25.098Z,24.50
2023-02-12T07:13:57.248Z,24.98
2023-02-12T07:16:26.555Z,25.33
2023-02-12T07:18:55.909Z,24.02
2023-02-12T07:21:26.792Z,26.10
2023-02-12T07:23:57.198Z,24.80
2023-02-12T07:26:26.160Z,25.23
2023-02-12T07:28:55.333Z,25.63
2023-02-12T07:31:30.934Z,23.75
2023-02-12T07:34:03.035Z,25.05
2023-02-12T07:36:32.886Z,25.15
2023-02-12T07:39:08.120Z,24.73
2023-02-12T07:41:39.363Z,27.25
2023-02-12T07:44:10.403Z,25.02
2023-02-12T07:46:41.664Z,24.98
2023-02-12T07:49:17.566Z,25.83
2023-02-12T07:51:49.791Z,26.15
2023-02-12T07:54:19.762Z,25.38
2023-02-12T07:56:49.441Z,27.13
2023-02-12T07:59:21.622Z,26.40
2023-02-12T08:01:51.880Z,28.70
2023-02-12T08:04:27.776Z,27.55
2023-02-12T08:06:57.416Z,29.20
2023-02-12T08:09:31.430Z,27.40
2023-02-12T08:12:00.016Z,26.70
2023-02-12T08:14:28.718Z,26.85
2023-02-12T08:17:01.996Z,27.52
2023-02-12T08:19:30.462Z,26.83
2023-02-12T08:21:59.581Z,28.00
2023-02-12T08:24:32.450Z,26.67
2023-02-12T08:27:00.796Z,26.35
2023-02-12T08:29:44.368Z,26.23
2023-02-12T08:32:14.560Z,24.95
2023-02-12T08:34:46.828Z,25.48
2023-02-12T08:37:15.437Z,25.42
2023-02-12T08:39:48.114Z,26.85
2023-02-12T08:42:16.524Z,25.05
2023-02-12T08:44:46.112Z,24.27
2023-02-12T08:47:18.084Z,24.95
2023-02-12T08:49:52.751Z,25.45
2023-02-12T08:52:22.829Z,24.00
2023-02-12T08:54:52.730Z,24.67
2023-02-12T08:57:23.954Z,25.15
2023-02-12T08:59:55.407Z,25.25
2023-02-12T09:02:25.388Z,25.42
2023-02-12T09:04:54.428Z,24.92
2023-02-12T09:07:23.397Z,25.30
2023-02-12T09:09:57.414Z,25.05
2023-02-12T09:12:27.217Z,23.13
2023-02-12T09:14:55.813Z,24.67
2023-02-12T09:17:27.846Z,24.67
2023-02-12T09:19:56.556Z,24.15
2023-02-12T09:22:25.474Z,23.17
2023-02-12T09:24:58.434Z,24.88
2023-02-12T09:27:28.658Z,23.45
2023-02-12T09:29:59.160Z,23.17
2023-02-12T09:32:27.488Z,25.42
2023-02-12T09:34:56.346Z,24.08
2023-02-12T09:37:24.853Z,24.33
2023-02-12T09:39:56.544Z,25.00
2023-02-12T09:42:52.415Z,24.98
2023-02-12T09:45:31.710Z,23.73
2023-02-12T09:48:12.211Z,24.27
2023-02-12T09:50:52.119Z,24.83
2023-02-12T09:53:28.326Z,24.73
2023-02-12T09:56:00.269Z,24.88
2023-02-12T09:58:36.341Z,25.42
2023-02-12T10:01:14.222Z,25.05
2023-02-12T10:03:46.046Z,25.00
2023-02-12T10:06:19.203Z,24.45
2023-02-12T10:12:03.896Z,25.85
2023-02-12T10:14:59.693Z,24.80
2023-02-12T10:17:39.381Z,24.17
2023-02-12T10:20:29.241Z,24.92
2023-02-12T10:23:19.443Z,25.85
2023-02-12T10:25:53.860Z,24.70
2023-02-12T10:28:31.336Z,25.65
2023-02-12T10:31:03.875Z,24.92
2023-02-12T10:33:40.035Z,25.90
2023-02-12T10:36:20.215Z,24.98
2023-02-12T10:38:53.103Z,25.52
2023-02-12T10:41:25.617Z,26.02
2023-02-12T10:44:03.108Z,26.58
2023-02-12T10:46:34.559Z,25.75
2023-02-12T10:49:03.650Z,25.67
2023-02-12T10:51:52.094Z,23.98
2023-02-12T10:54:46.724Z,24.80
2023-02-12T10:57:27.844Z,25.45
2023-02-12T11:00:18.340Z,23.75
2023-02-12T11:03:07.465Z,24.63
2023-02-12T11:05:55.625Z,25.13
2023-02-12T11:08:37.557Z,26.00
2023-02-12T11:11:14.433Z,24.63
2023-02-12T11:13:50.435Z,25.08
2023-02-12T11:16:53.736Z,22.65
2023-02-12T11:19:31.901Z,21.02
2023-02-12T11:22:09.300Z,22.90
2023-02-12T11:24:43.234Z,21.92
2023-02-12T11:27:33.288Z,23.20
2023-02-12T11:30:21.976Z,23.73
2023-02-12T11:32:52.860Z,22.95
2023-02-12T11:35:28.809Z,21.00
2023-02-12T11:38:04.064Z,23.77
2023-02-12T11:40:39.284Z,22.83
2023-02-12T11:43:20.976Z,21.02
2023-02-12T11:46:01.113Z,19.10
2023-02-12T11:48:50.170Z,16.52
2023-02-12T11:51:33.867Z,16.75
2023-02-12T11:54:09.370Z,16.55
2023-02-12T11:56:50.913Z,15.73
2023-02-12T11:59:43.116Z,12.95
2023-02-12T12:02:27.747Z,12.15
2023-02-12T12:05:09.721Z,12.15
2023-02-12T12:07:51.662Z,11.75
2023-02-12T12:10:35.461Z,11.93
2023-02-12T12:13:12.246Z,10.63
2023-02-12T12:16:04.029Z,12.48
2023-02-12T12:21:58.305Z,12.85
2023-02-12T12:24:41.911Z,12.48
2023-02-12T12:27:39.395Z,10.88
2023-02-12T12:30:18.325Z,9.88
2023-02-12T12:32:49.340Z,8.00
2023-02-12T12:35:29.502Z,8.15
2023-02-12T12:38:05.661Z,7.43
2023-02-12T12:40:54.518Z,7.07
2023-02-12T12:46:59.093Z,6.70
2023-02-12T12:49:45.484Z,6.32
2023-02-12T12:52:46.971Z,7.00
2023-02-12T12:55:45.609Z,6.13
2023-02-12T12:58:30.986Z,5.72
2023-02-12T13:01:19.715Z,5.65
2023-02-12T13:04:38.544Z,5.60
2023-02-12T13:07:31.567Z,5.75
2023-02-12T13:10:23.134Z,5.88
2023-02-12T13:13:07.017Z,4.85
2023-02-12T13:15:50.264Z,4.72
2023-02-12T13:18:30.030Z,4.32
2023-02-12T13:21:20.850Z,3.45
2023-02-12T13:23:55.512Z,3.55
2023-02-12T13:26:31.510Z,3.70
2023-02-12T13:29:12.284Z,4.13
2023-02-12T13:31:59.265Z,3.80
2023-02-12T13:34:38.398Z,4.22
2023-02-12T13:37:33.528Z,3.45
2023-02-12T13:40:10.184Z,3.75
2023-02-12T13:42:51.344Z,3.40
2023-02-12T13:45:56.132Z,3.92
2023-02-12T13:48:41.894Z,3.45
2023-02-12T13:51:30.553Z,3.38
2023-02-12T13:54:22.906Z,3.25
2023-02-12T13:56:53.663Z,3.15
2023-02-12T13:59:42.172Z,3.60
2023-02-12T14:02:42.713Z,3.30
2023-02-12T14:05:34.040Z,3.47
2023-02-12T14:08:05.753Z,3.78
2023-02-12T14:10:54.442Z,3.65
2023-02-12T14:13:36.637Z,3.50
2023-02-12T14:16:35.152Z,3.70
2023-02-12T14:19:40.437Z,3.35
2023-02-12T14:22:15.839Z,3.63
2023-02-12T14:24:52.912Z,3.60
2023-02-12T14:27:37.129Z,3.40
2023-02-12T14:30:33.812Z,2.83
2023-02-12T14:33:27.890Z,3.85
2023-02-12T14:36:19.923Z,3.28
2023-02-12T14:39:06.699Z,3.85
2023-02-12T14:41:42.003Z,3.33
2023-02-12T14:44:48.961Z,3.03
2023-02-12T14:47:48.576Z,3.65
2023-02-12T14:50:23.148Z,4.03
2023-02-12T14:53:00.624Z,4.00
2023-02-12T14:55:35.357Z,3.67
2023-02-12T14:58:11.519Z,3.58
2023-02-12T15:00:41.606Z,4.05
2023-02-12T15:03:24.316Z,3.42
2023-02-12T15:06:01.846Z,4.03
2023-02-12T15:08:44.501Z,3.35
2023-02-12T15:11:37.927Z,3.40
2023-02-12T15:14:09.207Z,3.22
2023-02-12T15:16:49.740Z,3.85
2023-02-12T15:19:40.537Z,3.97
2023-02-12T15:22:22.082Z,3.50
2023-02-12T15:24:53.793Z,3.00
2023-02-12T15:27:23.879Z,3.83
2023-02-12T15:29:59.497Z,4.32
2023-02-12T15:32:31.134Z,4.10
2023-02-12T15:34:59.944Z,4.40
2023-02-12T15:37:33.552Z,4.15
2023-02-12T15:40:08.507Z,4.38
2023-02-12T15:42:43.269Z,4.20
2023-02-12T15:45:25.476Z,4.63
2023-02-12T15:48:33.338Z,3.97
2023-02-12T15:51:13.202Z,4.60
2023-02-12T15:53:47.442Z,5.00
2023-02-12T15:56:20.441Z,3.92
2023-02-12T15:58:53.933Z,4.90
2023-02-12T16:01:42.172Z,5.30
2023-02-12T16:04:11.285Z,6.30
2023-02-12T16:06:41.928Z,6.28
2023-02-12T16:09:23.482Z,7.82
2023-02-12T16:11:52.561Z,9.68
2023-02-12T16:14:29.434Z,10.98
2023-02-12T16:17:00.909Z,11.75
2023-02-12T16:19:38.571Z,13.27
2023-02-12T16:22:19.557Z,12.75
2023-02-12T16:24:53.691Z,13.23
2023-02-12T16:27:25.517Z,14.88
2023-02-12T16:30:08.397Z,15.45
2023-02-12T16:32:46.950Z,13.30
2023-02-12T16:35:26.647Z,14.43
2023-02-12T16:38:01.087Z,14.77
2023-02-12T16:40:38.938Z,14.70
2023-02-12T16:43:27.202Z,14.13
2023-02-12T16:46:12.831Z,14.50
2023-02-12T16:48:44.141Z,14.98
2023-02-12T16:51:24.763Z,15.63
2023-02-12T16:54:05.452Z,16.27
2023-02-12T16:56:39.860Z,15.88
2023-02-12T16:59:10.319Z,16.40
2023-02-12T17:01:43.945Z,16.33
2023-02-12T17:04:21.877Z,16.08
2023-02-12T17:06:53.272Z,17.52
2023-02-12T17:09:24.513Z,17.63
2023-02-12T17:11:54.164Z,16.98
2023-02-12T17:14:24.545Z,16.83
2023-02-12T17:17:02.846Z,16.80
2023-02-12T17:19:35.171Z,17.45
2023-02-12T17:22:06.477Z,17.42
2023-02-12T17:24:38.301Z,18.27
2023-02-12T17:27:09.309Z,18.48
2023-02-12T17:29:38.268Z,18.63
2023-02-12T17:32:16.414Z,17.83
2023-02-12T17:34:48.650Z,18.25
2023-02-12T17:37:18.432Z,19.20
2023-02-12T17:39:50.823Z,17.85
2023-02-12T17:42:19.267Z,19.10
2023-02-12T17:44:51.655Z,17.98
2023-02-12T17:47:28.703Z,19.90
2023-02-12T17:50:00.499Z,19.55
2023-02-12T17:52:33.673Z,21.40
2023-02-12T17:55:07.750Z,20.20
2023-02-12T17:57:36.499Z,20.58
2023-02-12T18:00:21.500Z,24.20
2023-02-12T18:02:53.352Z,24.10
2023-02-12T18:05:23.566Z,21.17
2023-02-12T18:07:54.167Z,18.58
2023-02-12T18:10:23.743Z,19.73
2023-02-12T18:12:54.220Z,18.92
2023-02-12T18:15:23.943Z,20.02
2023-02-12T18:17:56.895Z,19.63
2023-02-12T18:20:26.014Z,20.73
2023-02-12T18:22:54.516Z,22.02
2023-02-12T18:25:27.370Z,20.25
2023-02-12T18:27:56.214Z,21.75
2023-02-12T18:30:25.497Z,21.35
2023-02-12T18:33:00.606Z,20.55
2023-02-12T18:35:31.341Z,21.25
2023-02-12T18:38:10.495Z,23.17
2023-02-12T18:40:42.231Z,22.77
2023-02-12T18:43:10.526Z,24.02
2023-02-12T18:45:42.487Z,23.92
2023-02-12T18:48:14.159Z,23.23
2023-02-12T18:50:44.022Z,24.42
2023-02-12T18:53:14.763Z,25.27
2023-02-12T18:55:47.387Z,24.48
2023-02-12T18:58:16.371Z,23.58
2023-02-12T19:00:49.597Z,24.33
2023-02-12T19:03:21.845Z,23.70
2023-02-12T19:05:52.165Z,25.35
2023-02-12T19:08:23.853Z,25.20
2023-02-12T19:10:53.278Z,24.42
2023-02-12T19:13:27.156Z,24.38
2023-02-12T19:15:57.580Z,26.85
2023-02-12T19:18:35.160Z,26.25
2023-02-12T19:21:12.390Z,24.75
2023-02-12T19:26:38.894Z,27.05
2023-02-12T19:29:18.814Z,29.67
2023-02-12T19:31:53.607Z,26.50
2023-02-12T19:34:25.689Z,27.15
2023-02-12T19:36:56.197Z,30.08
2023-02-12T19:39:34.215Z,32.13
2023-02-12T19:42:04.131Z,30.40
2023-02-12T19:44:33.543Z,28.85
2023-02-12T19:47:08.906Z,27.73
2023-02-12T19:49:42.208Z,28.10
2023-02-12T19:52:12.616Z,25.10
2023-02-12T19:54:43.196Z,26.67
2023-02-12T19:57:13.824Z,24.60
2023-02-12T19:59:46.771Z,28.65
2023-02-12T20:04:45.906Z,24.35
2023-02-12T20:07:15.205Z,26.98
2023-02-12T20:09:46.733Z,30.92
2023-02-12T20:12:17.534Z,26.73
2023-02-12T20:14:50.401Z,27.25
2023-02-12T20:17:20.286Z,25.67
2023-02-12T20:19:57.585Z,29.20
2023-02-12T20:22:26.726Z,27.77
2023-02-12T20:24:55.672Z,29.50
2023-02-12T20:27:25.579Z,30.92
2023-02-12T20:29:56.053Z,27.88
2023-02-12T20:32:24.879Z,25.67
2023-02-12T20:34:56.306Z,26.70
2023-02-12T20:37:26.184Z,26.13
2023-02-12T20:40:00.142Z,25.83
2023-02-12T20:42:29.886Z,28.33
2023-02-12T20:44:59.623Z,28.90
2023-02-12T20:47:30.390Z,27.92
2023-02-12T20:50:12.991Z,28.30
2023-02-12T20:52:42.488Z,28.55
2023-02-12T20:55:24.447Z,29.85
2023-02-12T20:58:00.159Z,28.48
2023-02-12T21:00:50.809Z,32.25
2023-02-12T21:06:05.996Z,34.55
2023-02-12T21:08:39.506Z,34.45
2023-02-12T21:11:15.439Z,33.05
2023-02-12T21:14:02.537Z,33.65
2023-02-12T21:16:45.514Z,30.60
2023-02-12T21:19:28.024Z,30.52
2023-02-12T21:22:06.501Z,32.05
2023-02-12T21:24:42.642Z,33.35
2023-02-12T21:27:37.211Z,30.33
2023-02-12T21:30:32.905Z,30.90
2023-02-12T21:33:03.596Z,30.40
2023-02-12T21:35:42.257Z,29.67
2023-02-12T21:38:13.276Z,28.90
2023-02-12T21:40:49.974Z,29.35
2023-02-12T21:43:20.079Z,28.50
2023-02-12T21:45:52.284Z,31.73
2023-02-12T21:48:23.257Z,32.23
2023-02-12T21:50:55.631Z,30.38
2023-02-12T21:53:30.915Z,29.70
2023-02-12T21:56:07.372Z,29.85
2023-02-12T21:58:41.684Z,29.55
2023-02-12T22:01:15.916Z,34.28
2023-02-12T22:04:03.858Z,31.73
2023-02-12T22:06:36.210Z,30.42
2023-02-12T22:09:09.193Z,32.78
2023-02-12T22:14:13.445Z,32.03
2023-02-12T22:16:44.215Z,31.55
2023-02-12T22:19:14.038Z,32.72
2023-02-12T22:21:45.745Z,32.42
2023-02-12T22:24:26.562Z,31.20
2023-02-12T22:27:08.197Z,32.70
2023-02-12T22:29:40.484Z,32.22
2023-02-12T22:32:11.536Z,31.20
2023-02-12T22:34:41.305Z,32.72
2023-02-12T22:37:14.025Z,32.10
2023-02-12T22:39:50.571Z,30.55
2023-02-12T22:42:22.470Z,31.90
2023-02-12T22:44:54.523Z,29.33
2023-02-12T22:47:25.204Z,31.23
2023-02-12T22:50:13.203Z,30.38
2023-02-12T22:52:43.153Z,28.98
2023-02-12T22:55:24.396Z,27.23
2023-02-12T22:57:55.614Z,26.83
2023-02-12T23:00:30.245Z,26.88
2023-02-12T23:03:11.329Z,25.08
2023-02-12T23:05:42.539Z,28.38
2023-02-12T23:08:18.035Z,29.08
2023-02-12T23:10:53.390Z,28.58
2023-02-12T23:13:29.894Z,27.60
2023-02-12T23:15:58.665Z,26.65
2023-02-12T23:18:36.686Z,28.17
2023-02-12T23:21:05.310Z,27.05
2023-02-12T23:23:39.457Z,28.98
2023-02-12T23:26:09.581Z,29.52
2023-02-12T23:28:47.618Z,27.40
2023-02-12T23:31:23.320Z,26.00
2023-02-12T23:33:53.103Z,25.33
2023-02-12T23:36:26.104Z,26.65
2023-02-12T23:41:48.832Z,25.75
2023-02-12T23:44:17.542Z,27.85
2023-02-12T23:46:48.385Z,28.92
2023-02-12T23:49:22.523Z,26.73
2023-02-12T23:51:56.896Z,28.58
2023-02-12T23:54:30.846Z,27.60
2023-02-12T23:57:06.285Z,29.15
2023-02-12T23:59:56.608Z,36.13
